sensor_id;sensor_type;location;lat;lon;timestamp;pressure;altitude;pressure_sealevel;temperature;humidity
42603;BME280;28233;55.748;48.752;2023-04-07T00:00:24;100039.69;;;0.54;55.17
42603;BME280;28233;55.748;48.752;2023-04-07T00:02:28;100042.31;;;0.49;55.36
42603;BME280;28233;55.748;48.752;2023-04-07T00:04:31;100033.28;;;0.43;55.04
42603;BME280;28233;55.748;48.752;2023-04-07T00:06:35;100035.19;;;0.43;55.54
42603;BME280;28233;55.748;48.752;2023-04-07T00:08:38;100033.44;;;0.36;54.79
42603;BME280;28233;55.748;48.752;2023-04-07T00:10:40;100044.56;;;0.40;55.44
42603;BME280;28233;55.748;48.752;2023-04-07T00:12:43;100045.88;;;0.37;54.75
42603;BME280;28233;55.748;48.752;2023-04-07T00:14:46;100047.19;;;0.35;55.05
42603;BME280;28233;55.748;48.752;2023-04-07T00:16:49;100043.56;;;0.29;54.56
42603;BME280;28233;55.748;48.752;2023-04-07T00:18:51;100045.19;;;0.30;55.10
42603;BME280;28233;55.748;48.752;2023-04-07T00:20:54;100042.41;;;0.25;54.90
42603;BME280;28233;55.748;48.752;2023-04-07T00:22:57;100047.50;;;0.22;54.95
42603;BME280;28233;55.748;48.752;2023-04-07T00:25:00;100048.66;;;0.14;55.02
42603;BME280;28233;55.748;48.752;2023-04-07T00:27:04;100048.56;;;0.09;55.63
42603;BME280;28233;55.748;48.752;2023-04-07T00:29:07;100038.84;;;0.08;55.39
42603;BME280;28233;55.748;48.752;2023-04-07T00:31:09;100040.72;;;0.07;54.96
42603;BME280;28233;55.748;48.752;2023-04-07T00:33:12;100043.66;;;0.06;55.00
42603;BME280;28233;55.748;48.752;2023-04-07T00:35:15;100046.34;;;0.06;54.79
42603;BME280;28233;55.748;48.752;2023-04-07T00:37:17;100042.97;;;-0.02;55.02
42603;BME280;28233;55.748;48.752;2023-04-07T00:39:20;100042.16;;;-0.02;54.35
42603;BME280;28233;55.748;48.752;2023-04-07T00:41:23;100046.72;;;-0.03;54.60
42603;BME280;28233;55.748;48.752;2023-04-07T00:43:26;100049.91;;;-0.06;54.73
42603;BME280;28233;55.748;48.752;2023-04-07T00:45:29;100052.03;;;-0.08;54.38
42603;BME280;28233;55.748;48.752;2023-04-07T00:47:31;100043.59;;;-0.11;53.97
42603;BME280;28233;55.748;48.752;2023-04-07T00:49:36;100045.44;;;-0.12;54.08
42603;BME280;28233;55.748;48.752;2023-04-07T00:51:39;100046.88;;;-0.09;53.95
42603;BME280;28233;55.748;48.752;2023-04-07T00:53:41;100052.50;;;-0.11;54.14
42603;BME280;28233;55.748;48.752;2023-04-07T00:55:45;100053.31;;;-0.10;53.80
42603;BME280;28233;55.748;48.752;2023-04-07T00:57:48;100043.22;;;-0.15;54.61
42603;BME280;28233;55.748;48.752;2023-04-07T00:59:53;100057.81;;;-0.16;54.65
42603;BME280;28233;55.748;48.752;2023-04-07T01:04:19;100061.53;;;-0.17;53.72
42603;BME280;28233;55.748;48.752;2023-04-07T01:06:29;100063.91;;;-0.20;53.86
42603;BME280;28233;55.748;48.752;2023-04-07T01:08:46;100056.41;;;-0.18;53.57
42603;BME280;28233;55.748;48.752;2023-04-07T01:13:45;100081.31;;;-0.28;53.59
42603;BME280;28233;55.748;48.752;2023-04-07T01:15:51;100073.44;;;-0.30;53.58
42603;BME280;28233;55.748;48.752;2023-04-07T01:18:05;100065.34;;;-0.30;53.43
42603;BME280;28233;55.748;48.752;2023-04-07T01:20:14;100073.31;;;-0.35;54.22
42603;BME280;28233;55.748;48.752;2023-04-07T01:22:24;100080.72;;;-0.42;54.53
42603;BME280;28233;55.748;48.752;2023-04-07T01:27:08;100087.28;;;-0.50;54.64
42603;BME280;28233;55.748;48.752;2023-04-07T01:29:35;100087.53;;;-0.51;54.80
42603;BME280;28233;55.748;48.752;2023-04-07T01:31:39;100088.00;;;-0.54;54.68
42603;BME280;28233;55.748;48.752;2023-04-07T01:33:45;100087.44;;;-0.56;54.76
42603;BME280;28233;55.748;48.752;2023-04-07T01:35:49;100079.31;;;-0.56;55.02
42603;BME280;28233;55.748;48.752;2023-04-07T01:37:53;100086.34;;;-0.55;54.74
42603;BME280;28233;55.748;48.752;2023-04-07T01:39:56;100087.44;;;-0.56;54.92
42603;BME280;28233;55.748;48.752;2023-04-07T01:41:59;100092.22;;;-0.58;54.96
42603;BME280;28233;55.748;48.752;2023-04-07T01:44:07;100091.38;;;-0.59;54.91
42603;BME280;28233;55.748;48.752;2023-04-07T01:46:10;100092.47;;;-0.60;54.87
42603;BME280;28233;55.748;48.752;2023-04-07T01:48:14;100093.16;;;-0.65;55.08
42603;BME280;28233;55.748;48.752;2023-04-07T01:50:17;100086.13;;;-0.66;55.21
42603;BME280;28233;55.748;48.752;2023-04-07T01:52:21;100091.75;;;-0.67;55.10
42603;BME280;28233;55.748;48.752;2023-04-07T01:54:24;100099.84;;;-0.67;54.68
42603;BME280;28233;55.748;48.752;2023-04-07T01:56:28;100098.44;;;-0.70;55.24
42603;BME280;28233;55.748;48.752;2023-04-07T01:58:31;100100.31;;;-0.70;54.80
42603;BME280;28233;55.748;48.752;2023-04-07T02:00:34;100092.44;;;-0.72;55.12
42603;BME280;28233;55.748;48.752;2023-04-07T02:02:40;100104.31;;;-0.73;55.09
42603;BME280;28233;55.748;48.752;2023-04-07T02:04:56;100097.25;;;-0.74;55.39
42603;BME280;28233;55.748;48.752;2023-04-07T02:07:07;100104.53;;;-0.74;55.20
42603;BME280;28233;55.748;48.752;2023-04-07T02:09:14;100105.94;;;-0.72;55.33
42603;BME280;28233;55.748;48.752;2023-04-07T02:11:20;100103.47;;;-0.73;55.22
42603;BME280;28233;55.748;48.752;2023-04-07T02:13:23;100098.53;;;-0.76;55.47
42603;BME280;28233;55.748;48.752;2023-04-07T02:15:28;100100.53;;;-0.72;55.06
42603;BME280;28233;55.748;48.752;2023-04-07T02:17:33;100102.44;;;-0.72;54.97
42603;BME280;28233;55.748;48.752;2023-04-07T02:19:37;100118.38;;;-0.71;54.60
42603;BME280;28233;55.748;48.752;2023-04-07T02:21:41;100107.34;;;-0.69;54.70
42603;BME280;28233;55.748;48.752;2023-04-07T02:23:45;100118.16;;;-0.69;54.68
42603;BME280;28233;55.748;48.752;2023-04-07T02:25:48;100122.25;;;-0.67;54.73
42603;BME280;28233;55.748;48.752;2023-04-07T02:27:51;100124.94;;;-0.67;54.75
42603;BME280;28233;55.748;48.752;2023-04-07T02:29:54;100122.38;;;-0.61;54.38
42603;BME280;28233;55.748;48.752;2023-04-07T02:31:57;100127.31;;;-0.58;54.15
42603;BME280;28233;55.748;48.752;2023-04-07T02:33:59;100122.25;;;-0.55;54.48
42603;BME280;28233;55.748;48.752;2023-04-07T02:36:02;100130.13;;;-0.53;54.10
42603;BME280;28233;55.748;48.752;2023-04-07T02:38:05;100132.34;;;-0.50;54.24
42603;BME280;28233;55.748;48.752;2023-04-07T02:40:08;100133.19;;;-0.50;54.17
42603;BME280;28233;55.748;48.752;2023-04-07T02:42:11;100135.66;;;-0.48;54.12
42603;BME280;28233;55.748;48.752;2023-04-07T02:44:13;100134.59;;;-0.47;54.38
42603;BME280;28233;55.748;48.752;2023-04-07T02:46:16;100137.06;;;-0.46;54.37
42603;BME280;28233;55.748;48.752;2023-04-07T02:48:19;100135.31;;;-0.40;54.64
42603;BME280;28233;55.748;48.752;2023-04-07T02:50:22;100131.31;;;-0.37;54.09
42603;BME280;28233;55.748;48.752;2023-04-07T02:52:24;100145.38;;;-0.35;54.08
42603;BME280;28233;55.748;48.752;2023-04-07T02:54:27;100145.75;;;-0.32;53.86
42603;BME280;28233;55.748;48.752;2023-04-07T02:56:30;100144.47;;;-0.29;53.70
42603;BME280;28233;55.748;48.752;2023-04-07T02:58:32;100142.69;;;-0.24;53.16
42603;BME280;28233;55.748;48.752;2023-04-07T03:00:35;100144.34;;;-0.23;53.76
42603;BME280;28233;55.748;48.752;2023-04-07T03:02:38;100155.75;;;-0.20;53.18
42603;BME280;28233;55.748;48.752;2023-04-07T03:04:40;100152.56;;;-0.17;53.37
42603;BME280;28233;55.748;48.752;2023-04-07T03:06:43;100152.56;;;-0.17;53.52
42603;BME280;28233;55.748;48.752;2023-04-07T03:08:46;100156.91;;;-0.16;53.62
42603;BME280;28233;55.748;48.752;2023-04-07T03:10:49;100162.44;;;-0.11;53.27
42603;BME280;28233;55.748;48.752;2023-04-07T03:12:51;100164.44;;;-0.07;53.04
42603;BME280;28233;55.748;48.752;2023-04-07T03:14:54;100171.81;;;-0.02;51.79
42603;BME280;28233;55.748;48.752;2023-04-07T03:16:57;100178.06;;;-0.02;52.09
42603;BME280;28233;55.748;48.752;2023-04-07T03:18:59;100168.53;;;-0.04;52.29
42603;BME280;28233;55.748;48.752;2023-04-07T03:21:02;100168.28;;;-0.03;52.03
42603;BME280;28233;55.748;48.752;2023-04-07T03:23:05;100179.94;;;-0.02;52.10
42603;BME280;28233;55.748;48.752;2023-04-07T03:25:08;100181.34;;;0.01;52.52
42603;BME280;28233;55.748;48.752;2023-04-07T03:27:11;100175.69;;;0.02;52.20
42603;BME280;28233;55.748;48.752;2023-04-07T03:29:13;100176.63;;;0.08;51.78
42603;BME280;28233;55.748;48.752;2023-04-07T03:31:16;100186.84;;;0.06;52.13
42603;BME280;28233;55.748;48.752;2023-04-07T03:33:19;100182.84;;;0.08;52.08
42603;BME280;28233;55.748;48.752;2023-04-07T03:35:22;100183.94;;;0.07;51.93
42603;BME280;28233;55.748;48.752;2023-04-07T03:37:25;100192.38;;;0.11;51.55
42603;BME280;28233;55.748;48.752;2023-04-07T03:39:27;100197.53;;;0.12;51.88
42603;BME280;28233;55.748;48.752;2023-04-07T03:41:30;100195.19;;;0.16;52.00
42603;BME280;28233;55.748;48.752;2023-04-07T03:43:33;100204.94;;;0.17;51.78
42603;BME280;28233;55.748;48.752;2023-04-07T03:45:35;100209.63;;;0.22;52.04
42603;BME280;28233;55.748;48.752;2023-04-07T03:47:38;100201.88;;;0.25;52.31
42603;BME280;28233;55.748;48.752;2023-04-07T03:49:41;100206.78;;;0.28;52.16
42603;BME280;28233;55.748;48.752;2023-04-07T03:51:43;100200.94;;;0.31;51.96
42603;BME280;28233;55.748;48.752;2023-04-07T03:53:46;100204.81;;;0.35;52.68
42603;BME280;28233;55.748;48.752;2023-04-07T03:55:48;100208.44;;;0.41;51.87
42603;BME280;28233;55.748;48.752;2023-04-07T03:57:52;100203.84;;;0.41;51.88
42603;BME280;28233;55.748;48.752;2023-04-07T03:59:54;100196.31;;;0.44;52.71
42603;BME280;28233;55.748;48.752;2023-04-07T04:01:57;100212.28;;;0.57;52.01
42603;BME280;28233;55.748;48.752;2023-04-07T04:04:00;100208.88;;;0.61;51.65
42603;BME280;28233;55.748;48.752;2023-04-07T04:06:03;100206.25;;;0.67;51.21
42603;BME280;28233;55.748;48.752;2023-04-07T04:08:06;100207.06;;;0.67;52.01
42603;BME280;28233;55.748;48.752;2023-04-07T04:10:09;100216.69;;;0.75;51.66
42603;BME280;28233;55.748;48.752;2023-04-07T04:12:11;100213.25;;;0.79;51.41
42603;BME280;28233;55.748;48.752;2023-04-07T04:14:14;100224.19;;;0.84;51.31
42603;BME280;28233;55.748;48.752;2023-04-07T04:16:17;100221.84;;;0.88;51.24
42603;BME280;28233;55.748;48.752;2023-04-07T04:18:20;100224.41;;;0.95;51.07
42603;BME280;28233;55.748;48.752;2023-04-07T04:20:23;100227.44;;;0.98;51.22
42603;BME280;28233;55.748;48.752;2023-04-07T04:22:26;100230.97;;;0.99;51.45
42603;BME280;28233;55.748;48.752;2023-04-07T04:24:28;100226.72;;;1.03;50.59
42603;BME280;28233;55.748;48.752;2023-04-07T04:26:31;100224.59;;;1.05;50.16
42603;BME280;28233;55.748;48.752;2023-04-07T04:28:34;100237.63;;;1.08;50.70
42603;BME280;28233;55.748;48.752;2023-04-07T04:30:37;100232.88;;;1.15;50.97
42603;BME280;28233;55.748;48.752;2023-04-07T04:32:39;100236.75;;;1.19;50.92
42603;BME280;28233;55.748;48.752;2023-04-07T04:34:42;100230.88;;;1.22;50.57
42603;BME280;28233;55.748;48.752;2023-04-07T04:36:45;100237.44;;;1.26;51.15
42603;BME280;28233;55.748;48.752;2023-04-07T04:38:50;100241.06;;;1.32;50.48
42603;BME280;28233;55.748;48.752;2023-04-07T04:40:53;100246.22;;;1.34;50.82
42603;BME280;28233;55.748;48.752;2023-04-07T04:42:56;100249.28;;;1.37;50.46
42603;BME280;28233;55.748;48.752;2023-04-07T04:44:58;100238.22;;;1.39;50.50
42603;BME280;28233;55.748;48.752;2023-04-07T04:47:01;100250.19;;;1.43;50.01
42603;BME280;28233;55.748;48.752;2023-04-07T04:49:04;100249.97;;;1.44;50.02
42603;BME280;28233;55.748;48.752;2023-04-07T04:51:07;100243.88;;;1.54;50.73
42603;BME280;28233;55.748;48.752;2023-04-07T04:53:10;100248.56;;;1.59;50.24
42603;BME280;28233;55.748;48.752;2023-04-07T04:55:13;100253.75;;;1.60;50.19
42603;BME280;28233;55.748;48.752;2023-04-07T04:57:16;100252.53;;;1.68;50.11
42603;BME280;28233;55.748;48.752;2023-04-07T04:59:19;100259.34;;;1.71;49.77
42603;BME280;28233;55.748;48.752;2023-04-07T05:01:21;100250.47;;;1.75;50.03
42603;BME280;28233;55.748;48.752;2023-04-07T05:03:25;100260.81;;;1.78;49.99
42603;BME280;28233;55.748;48.752;2023-04-07T05:05:29;100258.53;;;1.87;50.23
42603;BME280;28233;55.748;48.752;2023-04-07T05:07:31;100256.72;;;1.93;49.90
42603;BME280;28233;55.748;48.752;2023-04-07T05:09:34;100256.56;;;1.99;49.99
42603;BME280;28233;55.748;48.752;2023-04-07T05:11:37;100256.16;;;2.07;50.54
42603;BME280;28233;55.748;48.752;2023-04-07T05:13:39;100258.69;;;2.14;50.17
42603;BME280;28233;55.748;48.752;2023-04-07T05:15:42;100252.03;;;2.22;49.96
42603;BME280;28233;55.748;48.752;2023-04-07T05:17:45;100254.81;;;2.27;49.85
42603;BME280;28233;55.748;48.752;2023-04-07T05:19:51;100257.28;;;2.28;49.36
42603;BME280;28233;55.748;48.752;2023-04-07T05:21:54;100269.25;;;2.32;49.06
42603;BME280;28233;55.748;48.752;2023-04-07T05:23:57;100258.81;;;2.41;49.75
42603;BME280;28233;55.748;48.752;2023-04-07T05:26:00;100264.38;;;2.51;49.71
42603;BME280;28233;55.748;48.752;2023-04-07T05:28:02;100269.97;;;2.62;49.33
42603;BME280;28233;55.748;48.752;2023-04-07T05:30:06;100275.75;;;2.70;49.05
42603;BME280;28233;55.748;48.752;2023-04-07T05:32:09;100269.25;;;2.71;48.67
42603;BME280;28233;55.748;48.752;2023-04-07T05:34:12;100272.03;;;2.77;48.60
42603;BME280;28233;55.748;48.752;2023-04-07T05:36:14;100272.69;;;2.84;49.13
42603;BME280;28233;55.748;48.752;2023-04-07T05:38:17;100277.41;;;2.93;48.88
42603;BME280;28233;55.748;48.752;2023-04-07T05:40:20;100272.59;;;3.01;48.17
42603;BME280;28233;55.748;48.752;2023-04-07T05:42:23;100272.41;;;3.07;47.66
42603;BME280;28233;55.748;48.752;2023-04-07T05:44:25;100278.41;;;3.09;47.42
42603;BME280;28233;55.748;48.752;2023-04-07T05:46:28;100272.22;;;3.14;47.91
42603;BME280;28233;55.748;48.752;2023-04-07T05:48:31;100278.03;;;3.23;47.58
42603;BME280;28233;55.748;48.752;2023-04-07T05:50:33;100280.81;;;3.28;47.15
42603;BME280;28233;55.748;48.752;2023-04-07T05:52:36;100283.91;;;3.36;47.38
42603;BME280;28233;55.748;48.752;2023-04-07T05:54:39;100282.34;;;3.46;47.38
42603;BME280;28233;55.748;48.752;2023-04-07T05:56:42;100286.19;;;3.50;46.80
42603;BME280;28233;55.748;48.752;2023-04-07T05:58:44;100287.91;;;3.56;46.63
42603;BME280;28233;55.748;48.752;2023-04-07T06:00:48;100283.88;;;3.64;46.65
42603;BME280;28233;55.748;48.752;2023-04-07T06:02:55;100281.50;;;3.67;45.89
42603;BME280;28233;55.748;48.752;2023-04-07T06:05:02;100292.66;;;3.71;45.04
42603;BME280;28233;55.748;48.752;2023-04-07T06:07:05;100283.97;;;3.74;45.53
42603;BME280;28233;55.748;48.752;2023-04-07T06:09:08;100291.94;;;3.80;45.72
42603;BME280;28233;55.748;48.752;2023-04-07T06:11:10;100285.47;;;3.87;45.97
42603;BME280;28233;55.748;48.752;2023-04-07T06:13:13;100288.22;;;3.92;45.16
42603;BME280;28233;55.748;48.752;2023-04-07T06:15:16;100295.59;;;3.96;44.76
42603;BME280;28233;55.748;48.752;2023-04-07T06:17:19;100288.25;;;3.97;44.99
42603;BME280;28233;55.748;48.752;2023-04-07T06:19:21;100294.06;;;4.06;44.40
42603;BME280;28233;55.748;48.752;2023-04-07T06:21:24;100295.75;;;4.12;44.10
42603;BME280;28233;55.748;48.752;2023-04-07T06:23:27;100302.34;;;4.21;44.29
42603;BME280;28233;55.748;48.752;2023-04-07T06:25:30;100299.38;;;4.28;43.26
42603;BME280;28233;55.748;48.752;2023-04-07T06:27:34;100304.59;;;4.34;42.98
42603;BME280;28233;55.748;48.752;2023-04-07T06:29:37;100297.25;;;4.35;42.96
42603;BME280;28233;55.748;48.752;2023-04-07T06:31:39;100300.56;;;4.42;43.75
42603;BME280;28233;55.748;48.752;2023-04-07T06:33:43;100296.28;;;4.51;43.41
42603;BME280;28233;55.748;48.752;2023-04-07T06:35:46;100306.38;;;4.56;42.68
42603;BME280;28233;55.748;48.752;2023-04-07T06:37:49;100317.03;;;4.62;42.46
42603;BME280;28233;55.748;48.752;2023-04-07T06:39:51;100313.28;;;4.69;42.15
42603;BME280;28233;55.748;48.752;2023-04-07T06:41:54;100311.94;;;4.71;42.43
42603;BME280;28233;55.748;48.752;2023-04-07T06:43:58;100302.69;;;4.77;41.76
42603;BME280;28233;55.748;48.752;2023-04-07T06:46:01;100308.47;;;4.86;41.24
42603;BME280;28233;55.748;48.752;2023-04-07T06:48:03;100303.31;;;4.90;41.08
42603;BME280;28233;55.748;48.752;2023-04-07T06:50:07;100308.78;;;4.95;41.37
42603;BME280;28233;55.748;48.752;2023-04-07T06:52:11;100312.34;;;5.00;41.21
42603;BME280;28233;55.748;48.752;2023-04-07T06:54:14;100305.28;;;5.04;41.00
42603;BME280;28233;55.748;48.752;2023-04-07T06:56:17;100309.41;;;5.12;40.99
42603;BME280;28233;55.748;48.752;2023-04-07T06:58:20;100308.66;;;5.27;41.41
42603;BME280;28233;55.748;48.752;2023-04-07T07:00:23;100318.75;;;5.37;40.60
42603;BME280;28233;55.748;48.752;2023-04-07T07:02:26;100324.78;;;5.39;40.69
42603;BME280;28233;55.748;48.752;2023-04-07T07:04:29;100322.63;;;5.46;40.46
42603;BME280;28233;55.748;48.752;2023-04-07T07:06:32;100325.06;;;5.53;41.16
42603;BME280;28233;55.748;48.752;2023-04-07T07:08:34;100325.09;;;5.58;40.26
42603;BME280;28233;55.748;48.752;2023-04-07T07:10:37;100334.34;;;5.62;40.60
42603;BME280;28233;55.748;48.752;2023-04-07T07:12:40;100330.56;;;5.63;40.10
42603;BME280;28233;55.748;48.752;2023-04-07T07:14:43;100334.41;;;5.67;40.04
42603;BME280;28233;55.748;48.752;2023-04-07T07:16:45;100328.13;;;5.71;40.31
42603;BME280;28233;55.748;48.752;2023-04-07T07:18:49;100337.13;;;5.82;40.14
42603;BME280;28233;55.748;48.752;2023-04-07T07:20:52;100335.50;;;5.81;39.50
42603;BME280;28233;55.748;48.752;2023-04-07T07:22:55;100341.53;;;5.88;39.89
42603;BME280;28233;55.748;48.752;2023-04-07T07:24:58;100341.53;;;5.93;39.63
42603;BME280;28233;55.748;48.752;2023-04-07T07:27:01;100337.13;;;5.92;39.00
42603;BME280;28233;55.748;48.752;2023-04-07T07:29:04;100341.28;;;6.00;39.46
42603;BME280;28233;55.748;48.752;2023-04-07T07:31:11;100345.38;;;6.03;39.08
42603;BME280;28233;55.748;48.752;2023-04-07T07:33:19;100345.94;;;6.05;38.88
42603;BME280;28233;55.748;48.752;2023-04-07T07:35:24;100345.69;;;6.17;39.27
42603;BME280;28233;55.748;48.752;2023-04-07T07:37:26;100339.66;;;6.25;38.74
42603;BME280;28233;55.748;48.752;2023-04-07T07:39:29;100336.66;;;6.37;38.80
42603;BME280;28233;55.748;48.752;2023-04-07T07:41:32;100334.75;;;6.42;38.49
42603;BME280;28233;55.748;48.752;2023-04-07T07:43:36;100338.56;;;6.51;38.74
42603;BME280;28233;55.748;48.752;2023-04-07T07:45:41;100341.56;;;6.55;37.99
42603;BME280;28233;55.748;48.752;2023-04-07T07:47:44;100344.31;;;6.50;37.64
42603;BME280;28233;55.748;48.752;2023-04-07T07:49:47;100339.66;;;6.45;37.41
42603;BME280;28233;55.748;48.752;2023-04-07T07:51:50;100342.94;;;6.42;37.88
42603;BME280;28233;55.748;48.752;2023-04-07T07:53:53;100338.28;;;6.53;38.08
42603;BME280;28233;55.748;48.752;2023-04-07T07:55:56;100340.47;;;6.61;38.23
42603;BME280;28233;55.748;48.752;2023-04-07T07:57:59;100349.47;;;6.67;37.76
42603;BME280;28233;55.748;48.752;2023-04-07T08:00:05;100339.34;;;6.67;38.19
42603;BME280;28233;55.748;48.752;2023-04-07T08:02:09;100343.16;;;6.76;37.79
42603;BME280;28233;55.748;48.752;2023-04-07T08:04:12;100334.41;;;6.85;38.04
42603;BME280;28233;55.748;48.752;2023-04-07T08:06:15;100336.56;;;6.98;37.48
42603;BME280;28233;55.748;48.752;2023-04-07T08:08:19;100354.88;;;6.97;36.91
42603;BME280;28233;55.748;48.752;2023-04-07T08:10:22;100354.06;;;6.97;36.82
42603;BME280;28233;55.748;48.752;2023-04-07T08:12:26;100341.19;;;7.03;36.81
42603;BME280;28233;55.748;48.752;2023-04-07T08:14:30;100354.03;;;7.02;36.56
42603;BME280;28233;55.748;48.752;2023-04-07T08:16:33;100344.97;;;7.17;36.88
42603;BME280;28233;55.748;48.752;2023-04-07T08:18:36;100361.88;;;7.29;36.38
42603;BME280;28233;55.748;48.752;2023-04-07T08:20:40;100344.94;;;7.27;35.58
42603;BME280;28233;55.748;48.752;2023-04-07T08:22:48;100356.13;;;7.31;35.55
42603;BME280;28233;55.748;48.752;2023-04-07T08:24:51;100359.16;;;7.29;34.93
42603;BME280;28233;55.748;48.752;2023-04-07T08:26:54;100352.03;;;7.28;35.14
42603;BME280;28233;55.748;48.752;2023-04-07T08:28:58;100361.31;;;7.32;34.81
42603;BME280;28233;55.748;48.752;2023-04-07T08:31:01;100359.97;;;7.30;33.99
42603;BME280;28233;55.748;48.752;2023-04-07T08:33:04;100367.06;;;7.31;34.27
42603;BME280;28233;55.748;48.752;2023-04-07T08:35:08;100365.69;;;7.28;33.81
42603;BME280;28233;55.748;48.752;2023-04-07T08:37:11;100363.78;;;7.29;33.75
42603;BME280;28233;55.748;48.752;2023-04-07T08:39:13;100360.22;;;7.33;34.08
42603;BME280;28233;55.748;48.752;2023-04-07T08:41:21;100357.97;;;7.40;33.72
42603;BME280;28233;55.748;48.752;2023-04-07T08:43:25;100357.97;;;7.40;33.31
42603;BME280;28233;55.748;48.752;2023-04-07T08:45:31;100361.00;;;7.44;34.17
42603;BME280;28233;55.748;48.752;2023-04-07T08:47:35;100365.59;;;7.54;34.01
42603;BME280;28233;55.748;48.752;2023-04-07T08:49:40;100360.38;;;7.62;33.79
42603;BME280;28233;55.748;48.752;2023-04-07T08:51:46;100363.59;;;7.70;32.91
42603;BME280;28233;55.748;48.752;2023-04-07T08:53:50;100361.69;;;7.70;32.67
42603;BME280;28233;55.748;48.752;2023-04-07T08:55:55;100372.63;;;7.70;32.56
42603;BME280;28233;55.748;48.752;2023-04-07T08:57:59;100364.69;;;7.69;32.52
42603;BME280;28233;55.748;48.752;2023-04-07T09:00:04;100370.16;;;7.74;32.76
42603;BME280;28233;55.748;48.752;2023-04-07T09:02:07;100360.00;;;7.79;32.92
42603;BME280;28233;55.748;48.752;2023-04-07T09:04:10;100361.88;;;7.84;32.67
42603;BME280;28233;55.748;48.752;2023-04-07T09:06:13;100366.22;;;7.90;32.17
42603;BME280;28233;55.748;48.752;2023-04-07T09:08:17;100360.41;;;7.97;31.50
42603;BME280;28233;55.748;48.752;2023-04-07T09:10:20;100366.13;;;8.05;32.14
42603;BME280;28233;55.748;48.752;2023-04-07T09:12:23;100359.47;;;8.17;31.31
42603;BME280;28233;55.748;48.752;2023-04-07T09:14:27;100367.59;;;8.27;31.45
42603;BME280;28233;55.748;48.752;2023-04-07T09:16:30;100361.56;;;8.30;29.66
42603;BME280;28233;55.748;48.752;2023-04-07T09:18:33;100366.22;;;8.30;30.58
42603;BME280;28233;55.748;48.752;2023-04-07T09:20:58;100365.31;;;8.39;30.67
42603;BME280;28233;55.748;48.752;2023-04-07T09:23:02;100363.69;;;8.38;30.74
42603;BME280;28233;55.748;48.752;2023-04-07T09:25:16;100363.97;;;8.37;30.27
42603;BME280;28233;55.748;48.752;2023-04-07T09:27:19;100364.50;;;8.39;30.50
42603;BME280;28233;55.748;48.752;2023-04-07T09:29:22;100362.31;;;8.41;29.88
42603;BME280;28233;55.748;48.752;2023-04-07T09:31:46;100369.16;;;8.38;30.22
42603;BME280;28233;55.748;48.752;2023-04-07T09:33:49;100374.56;;;8.49;30.34
42603;BME280;28233;55.748;48.752;2023-04-07T09:35:53;100370.13;;;8.58;29.62
42603;BME280;28233;55.748;48.752;2023-04-07T09:38:06;100368.13;;;8.68;30.03
42603;BME280;28233;55.748;48.752;2023-04-07T09:40:10;100363.31;;;8.84;29.58
42603;BME280;28233;55.748;48.752;2023-04-07T09:42:13;100369.22;;;8.97;29.05
42603;BME280;28233;55.748;48.752;2023-04-07T09:44:23;100362.31;;;8.99;29.00
42603;BME280;28233;55.748;48.752;2023-04-07T09:46:27;100363.66;;;9.02;29.42
42603;BME280;28233;55.748;48.752;2023-04-07T09:48:30;100371.56;;;9.08;28.73
42603;BME280;28233;55.748;48.752;2023-04-07T09:50:35;100373.56;;;8.98;28.12
42603;BME280;28233;55.748;48.752;2023-04-07T09:52:51;100364.81;;;8.96;28.87
42603;BME280;28233;55.748;48.752;2023-04-07T09:54:54;100360.97;;;8.97;28.58
42603;BME280;28233;55.748;48.752;2023-04-07T09:57:00;100363.66;;;9.02;29.33
42603;BME280;28233;55.748;48.752;2023-04-07T09:59:03;100360.81;;;9.12;29.16
42603;BME280;28233;55.748;48.752;2023-04-07T10:01:07;100364.88;;;9.15;28.46
42603;BME280;28233;55.748;48.752;2023-04-07T10:03:14;100365.72;;;9.15;29.10
42603;BME280;28233;55.748;48.752;2023-04-07T10:05:17;100377.25;;;9.12;29.00
42603;BME280;28233;55.748;48.752;2023-04-07T10:07:23;100377.56;;;9.10;29.13
42603;BME280;28233;55.748;48.752;2023-04-07T10:09:27;100379.31;;;9.01;28.96
42603;BME280;28233;55.748;48.752;2023-04-07T10:11:29;100383.13;;;9.00;29.00
42603;BME280;28233;55.748;48.752;2023-04-07T10:13:36;100378.53;;;8.96;29.23
42603;BME280;28233;55.748;48.752;2023-04-07T10:15:40;100373.00;;;9.01;29.74
42603;BME280;28233;55.748;48.752;2023-04-07T10:17:45;100375.84;;;9.15;29.85
42603;BME280;28233;55.748;48.752;2023-04-07T10:19:50;100374.41;;;9.22;29.82
42603;BME280;28233;55.748;48.752;2023-04-07T10:21:53;100374.34;;;9.27;29.93
42603;BME280;28233;55.748;48.752;2023-04-07T10:23:58;100374.22;;;9.38;30.09
42603;BME280;28233;55.748;48.752;2023-04-07T10:26:06;100378.25;;;9.45;29.69
42603;BME280;28233;55.748;48.752;2023-04-07T10:28:10;100381.50;;;9.47;29.76
42603;BME280;28233;55.748;48.752;2023-04-07T10:30:21;100379.00;;;9.51;29.48
42603;BME280;28233;55.748;48.752;2023-04-07T10:32:25;100378.94;;;9.56;29.98
42603;BME280;28233;55.748;48.752;2023-04-07T10:37:21;100379.19;;;9.79;28.59
42603;BME280;28233;55.748;48.752;2023-04-07T10:39:24;100377.88;;;9.76;28.89
42603;BME280;28233;55.748;48.752;2023-04-07T10:43:39;100373.63;;;9.84;28.83
42603;BME280;28233;55.748;48.752;2023-04-07T10:50:20;100378.59;;;10.20;28.42
42603;BME280;28233;55.748;48.752;2023-04-07T10:52:23;100376.38;;;10.22;28.79
42603;BME280;28233;55.748;48.752;2023-04-07T10:54:26;100380.03;;;10.36;28.68
42603;BME280;28233;55.748;48.752;2023-04-07T10:57:03;100378.94;;;10.51;27.84
42603;BME280;28233;55.748;48.752;2023-04-07T10:59:15;100376.63;;;10.58;28.19
42603;BME280;28233;55.748;48.752;2023-04-07T11:01:19;100378.59;;;10.71;28.42
42603;BME280;28233;55.748;48.752;2023-04-07T11:03:23;100381.91;;;10.87;28.40